Time;durP1;ratioP1;P1;durP2;ratioP2;P2;SDS_P1;SDS_P2;PMS_P1;PMS_P2;Temp;Humidity;BMP_temperature;BMP_pressure;BME280_temperature;BME280_humidity;BME280_pressure;Samples;Min_cycle;Max_cycle;Signal;HPM_P1;HPM_P2
2021/05/15 00:00:08;;;;;;;0.70;0.50;;;11.20;99.90;;;;;;5067744;28;20673;-88
2021/05/15 00:02:35;;;;;;;0.60;0.50;;;11.20;99.90;;;;;;5065371;28;20633;-88
2021/05/15 00:05:06;;;;;;;1.70;0.90;;;11.20;99.90;;;;;;5068418;28;20636;-88
2021/05/15 00:07:32;;;;;;;0.67;0.67;;;11.30;99.90;;;;;;5065940;28;20621;-88
2021/05/15 00:09:58;;;;;;;1.10;0.60;;;11.20;99.90;;;;;;5067445;28;20656;-89
2021/05/15 00:12:25;;;;;;;1.60;0.93;;;11.20;99.90;;;;;;5080386;28;20686;-89
2021/05/15 00:14:52;;;;;;;1.27;1.13;;;11.20;99.90;;;;;;5071911;28;20625;-89
2021/05/15 00:17:19;;;;;;;1.57;0.73;;;11.20;99.90;;;;;;5076404;28;20613;-87
2021/05/15 00:19:45;;;;;;;1.27;0.90;;;11.20;99.90;;;;;;5073760;28;21285;-86
2021/05/15 00:22:12;;;;;;;0.90;0.90;;;11.20;99.90;;;;;;5069881;28;20629;-87
2021/05/15 00:24:39;;;;;;;0.80;0.70;;;11.20;99.90;;;;;;5066117;28;20629;-89
2021/05/15 00:27:05;;;;;;;1.10;1.00;;;11.10;99.90;;;;;;5071138;28;20645;-87
2021/05/15 00:29:32;;;;;;;1.00;0.90;;;11.10;99.90;;;;;;5066390;28;21207;-87
2021/05/15 00:31:58;;;;;;;1.13;0.67;;;11.10;99.90;;;;;;5063583;28;20621;-89
2021/05/15 00:34:24;;;;;;;2.23;1.10;;;11.10;99.90;;;;;;5067520;28;20621;-88
2021/05/15 00:36:51;;;;;;;0.63;0.63;;;11.00;99.90;;;;;;5065612;28;20678;-88
2021/05/15 00:39:19;;;;;;;0.87;0.80;;;11.10;99.90;;;;;;5065417;28;20683;-88
2021/05/15 00:41:46;;;;;;;0.97;0.80;;;11.00;99.90;;;;;;5070891;28;20665;-88
2021/05/15 00:44:18;;;;;;;1.20;0.70;;;11.00;99.90;;;;;;5069352;28;20629;-89
2021/05/15 00:46:45;;;;;;;1.77;0.90;;;10.90;99.90;;;;;;5067540;28;20649;-88
2021/05/15 00:49:13;;;;;;;1.43;1.07;;;10.90;99.90;;;;;;5064010;28;20613;-88
2021/05/15 00:51:41;;;;;;;1.57;1.00;;;10.80;99.90;;;;;;5066123;28;20594;-88
2021/05/15 00:54:10;;;;;;;1.50;0.90;;;10.80;99.90;;;;;;5064534;28;20621;-88
2021/05/15 00:56:38;;;;;;;2.20;1.00;;;10.70;99.90;;;;;;5076804;28;20643;-88
2021/05/15 00:59:05;;;;;;;1.20;0.90;;;10.60;99.90;;;;;;5068103;28;20656;-87
2021/05/15 01:01:32;;;;;;;1.17;0.90;;;10.60;99.90;;;;;;5065223;28;20653;-85
2021/05/15 01:03:58;;;;;;;1.10;0.80;;;10.50;99.90;;;;;;5066183;28;20629;-87
2021/05/15 01:06:25;;;;;;;1.27;0.90;;;10.50;99.90;;;;;;5068616;28;20970;-87
2021/05/15 01:08:53;;;;;;;0.90;0.90;;;10.40;99.90;;;;;;5063787;28;20637;-87
2021/05/15 01:11:21;;;;;;;4.70;1.10;;;10.30;99.90;;;;;;5065193;28;21002;-87
2021/05/15 01:13:56;;;;;;;1.23;1.10;;;10.30;99.90;;;;;;5064450;28;21202;-88
2021/05/15 01:16:23;;;;;;;1.60;0.83;;;10.20;99.90;;;;;;5064584;28;20633;-86
2021/05/15 01:18:49;;;;;;;1.60;0.93;;;10.20;99.90;;;;;;5064218;28;20657;-86
2021/05/15 01:21:17;;;;;;;2.10;0.90;;;10.00;99.90;;;;;;5067189;28;21341;-86
2021/05/15 01:23:44;;;;;;;0.87;0.70;;;9.90;99.90;;;;;;5068610;28;20624;-87
2021/05/15 01:26:15;;;;;;;2.40;1.03;;;9.90;99.90;;;;;;5068442;28;20624;-87
2021/05/15 01:28:42;;;;;;;2.97;0.97;;;9.70;99.90;;;;;;5065792;28;20581;-86
2021/05/15 01:31:09;;;;;;;1.50;1.17;;;9.60;99.90;;;;;;5068889;28;20645;-87
2021/05/15 01:33:36;;;;;;;2.10;1.00;;;9.60;99.90;;;;;;5067235;28;20621;-86
2021/05/15 01:36:03;;;;;;;1.43;0.87;;;9.50;99.90;;;;;;5069496;28;20628;-86
2021/05/15 01:38:30;;;;;;;1.53;1.23;;;9.40;99.90;;;;;;5071814;28;20741;-89
2021/05/15 01:41:02;;;;;;;1.30;1.10;;;9.40;99.90;;;;;;5068477;28;20652;-87
2021/05/15 01:43:28;;;;;;;1.93;0.90;;;9.50;99.90;;;;;;5067001;28;20643;-87
2021/05/15 01:45:55;;;;;;;1.07;0.90;;;9.40;99.90;;;;;;5068347;28;20785;-87
2021/05/15 01:48:21;;;;;;;1.57;1.17;;;9.30;99.90;;;;;;5067658;28;20624;-87
2021/05/15 01:51:01;;;;;;;2.83;1.20;;;9.40;99.90;;;;;;5067292;28;20652;-86
2021/05/15 01:53:32;;;;;;;1.10;1.00;;;9.40;99.90;;;;;;5072451;28;20655;-87
2021/05/15 01:55:59;;;;;;;1.40;0.60;;;9.50;99.90;;;;;;5071668;28;20628;-86
2021/05/15 01:58:26;;;;;;;4.90;1.20;;;9.50;99.90;;;;;;5072317;28;20660;-86
2021/05/15 02:00:53;;;;;;;1.13;0.90;;;9.50;99.90;;;;;;5069205;28;20665;-86
2021/05/15 02:03:21;;;;;;;1.40;1.30;;;9.40;99.90;;;;;;5068322;28;20617;-87
2021/05/15 02:05:48;;;;;;;1.70;0.90;;;9.40;99.90;;;;;;5066293;28;20613;-86
2021/05/15 02:08:14;;;;;;;2.47;1.30;;;9.30;99.90;;;;;;5071021;28;20630;-87
2021/05/15 02:10:42;;;;;;;1.43;1.00;;;9.30;99.90;;;;;;5100290;28;20669;-87
2021/05/15 02:13:09;;;;;;;1.30;1.03;;;9.30;99.90;;;;;;5069551;28;20628;-88
2021/05/15 02:15:36;;;;;;;1.20;1.10;;;9.30;99.90;;;;;;5065164;28;21183;-88
2021/05/15 02:18:03;;;;;;;2.10;1.00;;;9.20;99.90;;;;;;5065066;28;20992;-87
2021/05/15 02:20:30;;;;;;;4.37;1.40;;;9.20;99.90;;;;;;5066740;28;20672;-87
2021/05/15 02:22:57;;;;;;;1.90;1.27;;;9.20;99.90;;;;;;5066306;28;20621;-88
2021/05/15 02:25:26;;;;;;;1.43;1.30;;;9.20;99.90;;;;;;5074430;28;20696;-88
2021/05/15 02:27:54;;;;;;;2.00;1.57;;;9.10;99.90;;;;;;5083839;28;20665;-88
2021/05/15 02:30:24;;;;;;;1.47;0.93;;;9.10;99.90;;;;;;5070774;28;21237;-88
2021/05/15 02:32:50;;;;;;;2.20;1.30;;;9.10;99.90;;;;;;5083087;28;20627;-88
2021/05/15 02:35:17;;;;;;;1.77;1.17;;;9.00;99.90;;;;;;5071136;28;20623;-87
2021/05/15 02:37:45;;;;;;;1.07;1.03;;;9.00;99.90;;;;;;5084875;28;20656;-88
2021/05/15 02:40:13;;;;;;;2.60;1.30;;;8.90;99.90;;;;;;5080268;28;20644;-87
2021/05/15 02:42:40;;;;;;;1.70;1.13;;;8.90;99.90;;;;;;5089441;28;20629;-87
2021/05/15 02:45:10;;;;;;;1.83;1.30;;;8.90;99.90;;;;;;5088951;28;20609;-87
2021/05/15 02:47:36;;;;;;;1.70;1.23;;;8.90;99.90;;;;;;5089349;28;20624;-86
2021/05/15 02:50:04;;;;;;;2.30;1.20;;;8.90;99.90;;;;;;5091077;28;20651;-86
2021/05/15 02:52:30;;;;;;;2.87;1.10;;;8.90;99.90;;;;;;5094591;28;20703;-87
2021/05/15 02:54:57;;;;;;;1.87;1.47;;;8.80;99.90;;;;;;5087180;28;20617;-86
2021/05/15 02:57:23;;;;;;;1.33;1.10;;;8.80;99.90;;;;;;5089428;28;20643;-87
2021/05/15 02:59:49;;;;;;;2.50;1.33;;;8.90;99.90;;;;;;5081243;28;20678;-82
2021/05/15 03:02:17;;;;;;;2.20;1.20;;;8.80;99.90;;;;;;5066395;28;20633;-83
2021/05/15 03:04:43;;;;;;;2.17;1.33;;;8.70;99.90;;;;;;5069102;28;20630;-83
2021/05/15 03:07:09;;;;;;;1.80;1.70;;;8.70;99.90;;;;;;5069575;28;20641;-83
2021/05/15 03:09:35;;;;;;;1.33;1.00;;;8.70;99.90;;;;;;5068103;28;20653;-86
2021/05/15 03:12:04;;;;;;;3.33;1.30;;;8.70;99.90;;;;;;5089556;28;20612;-86
2021/05/15 03:14:31;;;;;;;3.10;1.20;;;8.70;99.90;;;;;;5084692;28;20675;-87
2021/05/15 03:17:00;;;;;;;3.93;1.50;;;8.60;99.90;;;;;;5069526;28;20632;-87
2021/05/15 03:19:29;;;;;;;2.77;1.50;;;8.50;99.90;;;;;;5072560;28;20662;-87
2021/05/15 03:21:55;;;;;;;2.80;1.47;;;8.40;99.90;;;;;;5070161;28;20670;-86
2021/05/15 03:24:23;;;;;;;1.20;1.10;;;8.40;99.90;;;;;;5068548;28;21151;-87
2021/05/15 03:26:49;;;;;;;1.30;1.17;;;8.30;99.90;;;;;;5067391;28;21633;-87
2021/05/15 03:29:17;;;;;;;1.17;1.07;;;8.20;99.90;;;;;;5064792;28;20617;-86
2021/05/15 03:31:43;;;;;;;1.67;1.47;;;8.20;99.90;;;;;;5067608;28;21198;-87
2021/05/15 03:34:10;;;;;;;1.87;1.50;;;8.30;99.90;;;;;;5076100;28;20633;-87
2021/05/15 03:36:39;;;;;;;5.13;1.40;;;8.30;99.90;;;;;;5072644;28;20627;-88
2021/05/15 03:39:07;;;;;;;1.47;1.20;;;8.30;99.90;;;;;;5071675;28;20671;-87
2021/05/15 03:41:34;;;;;;;2.00;1.33;;;8.40;99.90;;;;;;5075918;27;20660;-87
2021/05/15 03:44:00;;;;;;;2.20;1.40;;;8.40;99.90;;;;;;5070848;28;20625;-86
2021/05/15 03:46:33;;;;;;;1.57;1.47;;;8.40;99.90;;;;;;5063332;28;20628;-87
2021/05/15 03:48:59;;;;;;;1.33;1.23;;;8.50;99.90;;;;;;5072898;28;21016;-87
2021/05/15 03:51:26;;;;;;;1.70;1.00;;;8.50;99.90;;;;;;5068692;28;20632;-88
2021/05/15 03:53:54;;;;;;;1.47;1.37;;;8.50;99.90;;;;;;5070591;28;20661;-87
2021/05/15 03:56:21;;;;;;;1.47;1.37;;;8.50;99.90;;;;;;5068675;28;20623;-86
2021/05/15 03:58:47;;;;;;;1.40;1.23;;;8.50;99.90;;;;;;5067095;28;20720;-84
2021/05/15 04:01:14;;;;;;;2.37;1.20;;;8.60;99.90;;;;;;5071301;28;20670;-87
2021/05/15 04:03:41;;;;;;;1.57;1.30;;;8.60;99.90;;;;;;5072647;28;20628;-86
2021/05/15 04:06:08;;;;;;;1.40;1.27;;;8.50;99.90;;;;;;5067284;28;20629;-87
2021/05/15 04:08:36;;;;;;;2.93;1.30;;;8.50;99.90;;;;;;5066078;28;20634;-86
2021/05/15 04:11:04;;;;;;;3.47;1.47;;;8.60;99.90;;;;;;5066296;28;20649;-86
2021/05/15 04:13:35;;;;;;;1.93;1.10;;;8.50;99.90;;;;;;5066946;28;20574;-87
2021/05/15 04:16:04;;;;;;;1.37;1.03;;;8.60;99.90;;;;;;5069393;28;20715;-86
2021/05/15 04:18:32;;;;;;;1.40;1.30;;;8.70;99.90;;;;;;5066854;28;20657;-87
2021/05/15 04:20:58;;;;;;;3.40;1.23;;;8.80;99.90;;;;;;5070886;28;20649;-86
2021/05/15 04:23:25;;;;;;;3.87;1.50;;;8.80;99.90;;;;;;5071243;28;20606;-87
2021/05/15 04:25:51;;;;;;;1.90;1.67;;;8.90;99.90;;;;;;5076968;28;20649;-88
2021/05/15 04:28:22;;;;;;;1.30;1.10;;;8.90;99.90;;;;;;5075794;28;20696;-87
2021/05/15 04:30:49;;;;;;;1.33;1.13;;;8.90;99.90;;;;;;5075611;28;20637;-87
2021/05/15 04:33:15;;;;;;;2.87;1.10;;;8.90;99.90;;;;;;5070144;28;20625;-87
2021/05/15 04:35:42;;;;;;;3.60;1.07;;;9.00;99.90;;;;;;5091805;27;20633;-87
2021/05/15 04:38:08;;;;;;;3.43;1.23;;;9.10;99.90;;;;;;5096366;27;20624;-86
2021/05/15 04:40:36;;;;;;;1.40;1.27;;;9.20;99.90;;;;;;5067858;28;20656;-87
2021/05/15 04:43:04;;;;;;;2.17;1.10;;;9.30;99.90;;;;;;5078741;28;20630;-87
2021/05/15 04:45:32;;;;;;;1.53;1.07;;;9.40;99.90;;;;;;5067217;28;20672;-87
2021/05/15 04:47:59;;;;;;;2.40;1.10;;;9.50;99.90;;;;;;5065167;28;20609;-86
2021/05/15 04:50:26;;;;;;;1.67;1.00;;;9.60;99.90;;;;;;5061444;28;20668;-86
2021/05/15 04:52:53;;;;;;;1.40;1.30;;;9.80;99.90;;;;;;5060766;28;20655;-86
2021/05/15 04:55:20;;;;;;;1.80;1.33;;;9.90;99.90;;;;;;5067986;28;20616;-86
2021/05/15 04:57:47;;;;;;;2.17;1.83;;;10.00;99.90;;;;;;5065863;28;20640;-89
2021/05/15 05:00:15;;;;;;;2.00;1.50;;;10.10;99.90;;;;;;5058373;28;20727;-87
2021/05/15 05:02:42;;;;;;;1.40;1.30;;;10.10;99.90;;;;;;5064680;28;20624;-88
2021/05/15 05:05:09;;;;;;;1.87;1.43;;;10.20;99.90;;;;;;5068617;28;20625;-88
2021/05/15 05:07:39;;;;;;;3.03;1.63;;;10.10;99.90;;;;;;5065335;28;20629;-88
2021/05/15 05:10:09;;;;;;;2.80;1.83;;;10.10;99.90;;;;;;5065680;28;20678;-88
2021/05/15 05:12:37;;;;;;;1.57;1.27;;;10.10;99.90;;;;;;5070651;28;20660;-88
2021/05/15 05:15:05;;;;;;;1.67;1.20;;;10.10;99.90;;;;;;5071106;28;21221;-88
2021/05/15 05:17:31;;;;;;;1.90;1.63;;;10.20;99.90;;;;;;5069583;28;20633;-89
2021/05/15 05:19:59;;;;;;;2.80;1.77;;;10.40;99.90;;;;;;5066452;28;20750;-88
2021/05/15 05:22:25;;;;;;;2.03;1.40;;;10.60;99.90;;;;;;5067348;28;20632;-87
2021/05/15 05:24:52;;;;;;;2.10;1.43;;;10.90;99.90;;;;;;5061961;28;20621;-88
2021/05/15 05:27:21;;;;;;;1.90;1.30;;;10.90;99.90;;;;;;5062441;28;20645;-88
2021/05/15 05:29:47;;;;;;;4.60;1.53;;;11.00;99.90;;;;;;5062455;28;20710;-89
2021/05/15 05:32:14;;;;;;;2.10;1.10;;;11.20;99.90;;;;;;5061180;28;20640;-88
2021/05/15 05:34:42;;;;;;;1.57;1.17;;;11.40;99.90;;;;;;5059916;28;20633;-87
2021/05/15 05:37:13;;;;;;;1.27;1.07;;;11.40;99.90;;;;;;5092113;28;20648;-89
2021/05/15 05:39:40;;;;;;;1.30;1.20;;;11.50;99.90;;;;;;5089358;28;20673;-87
2021/05/15 05:42:07;;;;;;;1.47;1.37;;;11.40;99.90;;;;;;5060532;28;20656;-88
2021/05/15 05:44:33;;;;;;;1.23;0.80;;;11.50;99.90;;;;;;5058874;28;20664;-87
2021/05/15 05:47:00;;;;;;;1.80;1.50;;;11.40;99.90;;;;;;5063460;28;20635;-87
2021/05/15 05:49:26;;;;;;;2.77;1.33;;;11.30;99.90;;;;;;5063335;28;20621;-88
2021/05/15 05:51:52;;;;;;;2.13;1.30;;;11.40;99.90;;;;;;5064604;28;21083;-87
2021/05/15 05:54:20;;;;;;;1.50;1.23;;;11.50;99.90;;;;;;5063200;28;20643;-87
2021/05/15 05:56:46;;;;;;;1.53;1.00;;;11.50;99.90;;;;;;5060648;28;20633;-89
2021/05/15 05:59:13;;;;;;;1.30;1.17;;;11.50;99.90;;;;;;5060878;28;20679;-87
2021/05/15 06:01:39;;;;;;;1.63;1.03;;;11.50;99.90;;;;;;5070936;28;20625;-88
2021/05/15 06:04:06;;;;;;;1.40;1.30;;;11.60;99.90;;;;;;5068214;28;20644;-87
2021/05/15 06:06:33;;;;;;;2.60;1.30;;;11.80;99.90;;;;;;5068736;28;20703;-88
2021/05/15 06:08:59;;;;;;;1.03;0.93;;;11.80;99.90;;;;;;5063261;28;20625;-86
2021/05/15 06:11:27;;;;;;;1.47;1.17;;;11.80;99.90;;;;;;5064094;28;20637;-87
2021/05/15 06:13:54;;;;;;;1.43;1.07;;;11.90;99.90;;;;;;5065216;28;20686;-86
2021/05/15 06:16:20;;;;;;;2.27;1.37;;;12.00;99.90;;;;;;5091965;27;21035;-87
2021/05/15 06:18:46;;;;;;;2.20;1.20;;;12.20;99.90;;;;;;5064950;28;20699;-88
2021/05/15 06:21:13;;;;;;;2.20;1.23;;;12.10;99.90;;;;;;5064604;28;20765;-88
2021/05/15 06:23:40;;;;;;;1.60;1.30;;;12.10;99.90;;;;;;5068264;28;21244;-88
2021/05/15 06:26:09;;;;;;;1.33;1.07;;;12.10;99.90;;;;;;5069176;28;20625;-88
2021/05/15 06:28:36;;;;;;;1.00;0.90;;;12.10;99.90;;;;;;5063918;28;20731;-87
2021/05/15 06:31:05;;;;;;;1.13;0.90;;;12.30;99.90;;;;;;5065042;28;21453;-87
2021/05/15 06:33:32;;;;;;;1.30;0.93;;;12.40;99.90;;;;;;5060097;28;20640;-87
2021/05/15 06:36:00;;;;;;;3.17;1.30;;;12.50;99.90;;;;;;5063566;28;21214;-89
2021/05/15 06:38:27;;;;;;;1.23;1.03;;;12.60;99.90;;;;;;5063705;28;20649;-90
2021/05/15 06:40:53;;;;;;;2.20;0.93;;;12.90;99.90;;;;;;5062906;28;20653;-88
2021/05/15 06:43:21;;;;;;;1.20;0.80;;;13.00;99.90;;;;;;5065247;28;21214;-89
2021/05/15 06:45:48;;;;;;;0.80;0.70;;;13.30;99.90;;;;;;5061594;28;20671;-87
2021/05/15 06:48:16;;;;;;;1.20;0.80;;;13.30;99.90;;;;;;5056688;28;22668;-86
2021/05/15 06:50:42;;;;;;;0.60;0.50;;;13.40;99.90;;;;;;5058900;28;20770;-86
2021/05/15 06:53:08;;;;;;;2.27;0.80;;;13.50;99.90;;;;;;5053529;28;20701;-86
2021/05/15 06:55:35;;;;;;;1.37;0.90;;;13.60;99.90;;;;;;5091252;27;21167;-86
2021/05/15 06:58:04;;;;;;;2.23;0.80;;;13.60;99.90;;;;;;5061652;28;20631;-85
2021/05/15 07:00:32;;;;;;;1.00;0.60;;;13.90;99.90;;;;;;5059637;28;20668;-86
2021/05/15 07:02:59;;;;;;;0.90;0.70;;;13.90;99.90;;;;;;5060487;28;20657;-86
2021/05/15 07:05:25;;;;;;;1.07;0.70;;;14.00;99.90;;;;;;5063597;28;20647;-87
2021/05/15 07:07:52;;;;;;;1.27;0.70;;;14.40;99.90;;;;;;5059369;28;20713;-86
2021/05/15 07:10:18;;;;;;;0.93;0.83;;;14.30;99.90;;;;;;5060888;28;20613;-86
2021/05/15 07:12:45;;;;;;;0.90;0.70;;;14.20;99.90;;;;;;5060359;28;20642;-85
2021/05/15 07:15:13;;;;;;;2.60;0.97;;;14.30;99.90;;;;;;5064009;28;20632;-86
2021/05/15 07:17:40;;;;;;;2.10;0.70;;;14.30;99.90;;;;;;5067321;28;20613;-87
2021/05/15 07:20:08;;;;;;;0.80;0.60;;;14.50;99.90;;;;;;5067121;28;20645;-87
2021/05/15 07:22:35;;;;;;;1.50;0.77;;;14.80;99.90;;;;;;5064661;28;20628;-86
2021/05/15 07:25:02;;;;;;;1.20;0.60;;;15.10;99.90;;;;;;5056872;28;20727;-86
2021/05/15 07:27:29;;;;;;;0.90;0.50;;;15.10;99.10;;;;;;5053483;28;20661;-86
2021/05/15 07:29:57;;;;;;;0.80;0.47;;;14.80;99.40;;;;;;5058192;28;20628;-86
2021/05/15 07:32:27;;;;;;;0.50;0.40;;;15.10;99.70;;;;;;5065814;28;20668;-88
2021/05/15 07:34:54;;;;;;;0.60;0.50;;;15.30;98.60;;;;;;5063165;28;20838;-88
2021/05/15 07:37:30;;;;;;;1.23;0.60;;;15.30;98.80;;;;;;5068644;28;20629;-88
2021/05/15 07:39:58;;;;;;;0.40;0.30;;;15.30;98.80;;;;;;5066595;28;20657;-87
2021/05/15 07:42:24;;;;;;;0.47;0.47;;;15.00;98.60;;;;;;5066571;28;20629;-87
2021/05/15 07:44:50;;;;;;;1.90;0.80;;;14.90;99.80;;;;;;5067376;28;20675;-88
2021/05/15 07:47:17;;;;;;;1.77;0.70;;;14.70;99.60;;;;;;5095979;27;20708;-88
2021/05/15 07:49:44;;;;;;;1.10;0.50;;;14.80;99.30;;;;;;5063858;28;20625;-88
2021/05/15 07:52:11;;;;;;;1.10;0.60;;;14.90;99.60;;;;;;5072954;28;20626;-88
2021/05/15 07:54:39;;;;;;;0.87;0.70;;;15.10;99.40;;;;;;5071826;28;20659;-86
2021/05/15 07:57:06;;;;;;;0.70;0.67;;;15.10;99.50;;;;;;5069323;28;20649;-87
2021/05/15 07:59:34;;;;;;;2.60;0.70;;;15.20;99.30;;;;;;5070749;28;20660;-88
2021/05/15 08:02:01;;;;;;;6.90;0.80;;;15.20;98.50;;;;;;5069766;28;20582;-88
2021/05/15 08:04:28;;;;;;;1.37;0.73;;;15.50;98.50;;;;;;5072538;28;20713;-88
2021/05/15 08:06:56;;;;;;;2.53;0.50;;;15.50;98.70;;;;;;5065563;28;20625;-88
2021/05/15 08:09:30;;;;;;;1.17;0.50;;;15.80;98.60;;;;;;5071482;28;21235;-87
2021/05/15 08:11:59;;;;;;;1.70;0.70;;;15.90;98.10;;;;;;5075061;28;20620;-86
2021/05/15 08:14:27;;;;;;;1.00;0.53;;;15.90;98.00;;;;;;5072483;28;20722;-88
2021/05/15 08:16:53;;;;;;;2.77;0.73;;;16.00;97.60;;;;;;5073768;28;20637;-87
2021/05/15 08:19:24;;;;;;;0.90;0.90;;;15.90;97.20;;;;;;5069295;28;20693;-86
2021/05/15 08:21:53;;;;;;;0.80;0.50;;;15.90;97.70;;;;;;5070051;28;20688;-86
2021/05/15 08:24:20;;;;;;;0.97;0.80;;;16.10;97.30;;;;;;5066126;28;20661;-87
2021/05/15 08:26:46;;;;;;;2.50;0.70;;;16.00;96.70;;;;;;5065019;28;20733;-87
2021/05/15 08:29:18;;;;;;;1.00;0.60;;;15.50;97.40;;;;;;5062885;28;20644;-88
2021/05/15 08:31:44;;;;;;;0.60;0.47;;;15.50;98.00;;;;;;5074535;28;22777;-87
2021/05/15 08:34:11;;;;;;;1.00;0.60;;;15.50;97.50;;;;;;5074163;28;21311;-85
2021/05/15 08:36:37;;;;;;;1.07;0.70;;;15.40;97.90;;;;;;5075380;28;20710;-86
2021/05/15 08:39:06;;;;;;;2.00;0.80;;;15.10;98.80;;;;;;5069566;28;20688;-86
2021/05/15 08:41:33;;;;;;;0.90;0.70;;;15.30;98.50;;;;;;5075450;28;21175;-86
2021/05/15 08:44:04;;;;;;;2.20;0.73;;;15.30;98.10;;;;;;5073522;28;20668;-86
2021/05/15 08:46:32;;;;;;;1.17;0.57;;;15.50;97.50;;;;;;5073930;28;20716;-87
2021/05/15 08:49:04;;;;;;;0.93;0.50;;;15.70;97.20;;;;;;5075726;28;20689;-88
2021/05/15 08:51:31;;;;;;;1.17;0.60;;;15.70;96.80;;;;;;5072043;28;20649;-86
2021/05/15 08:53:59;;;;;;;0.70;0.70;;;15.60;97.50;;;;;;5068661;28;20669;-86
2021/05/15 08:56:26;;;;;;;1.47;0.80;;;15.50;97.50;;;;;;5066248;28;20903;-84
2021/05/15 08:58:54;;;;;;;0.77;0.43;;;15.60;97.70;;;;;;5064132;28;21836;-85
2021/05/15 09:01:23;;;;;;;0.87;0.67;;;15.80;96.60;;;;;;5064089;28;20640;-86
2021/05/15 09:03:52;;;;;;;1.00;0.57;;;15.70;97.10;;;;;;5060544;28;20656;-87
2021/05/15 09:06:21;;;;;;;2.40;0.60;;;15.70;97.10;;;;;;5063821;28;20641;-86
2021/05/15 09:08:48;;;;;;;0.70;0.50;;;15.50;97.50;;;;;;5063045;28;20669;-86
2021/05/15 09:11:16;;;;;;;1.27;0.73;;;15.60;97.30;;;;;;5062589;28;20624;-86
2021/05/15 09:13:51;;;;;;;1.67;0.63;;;15.90;96.60;;;;;;5062264;28;20750;-85
2021/05/15 09:16:17;;;;;;;1.50;1.13;;;16.20;96.00;;;;;;5065634;28;20639;-88
2021/05/15 09:18:44;;;;;;;1.80;0.97;;;16.10;96.60;;;;;;5069773;28;20824;-88
2021/05/15 09:21:14;;;;;;;1.10;0.67;;;16.10;95.70;;;;;;5070258;28;20688;-89
2021/05/15 09:23:46;;;;;;;1.27;0.70;;;16.10;96.10;;;;;;5072960;28;20710;-87
2021/05/15 09:26:16;;;;;;;0.60;0.60;;;15.80;96.50;;;;;;5066837;28;20695;-87
2021/05/15 09:28:44;;;;;;;0.97;0.50;;;16.10;96.00;;;;;;5065352;28;20858;-88
2021/05/15 09:31:23;;;;;;;1.80;0.80;;;16.20;95.60;;;;;;5065209;28;20671;-87
2021/05/15 09:33:53;;;;;;;2.40;1.00;;;16.40;95.70;;;;;;5064749;28;20674;-89
2021/05/15 09:36:23;;;;;;;3.00;1.80;;;16.50;95.20;;;;;;5063468;28;20608;-88
2021/05/15 09:39:00;;;;;;;1.00;0.70;;;16.90;95.70;;;;;;5065653;28;21269;-88
2021/05/15 09:41:37;;;;;;;0.70;0.63;;;17.30;95.00;;;;;;5071635;28;20662;-88
2021/05/15 09:44:05;;;;;;;2.23;1.00;;;17.80;94.40;;;;;;5068447;28;20660;-88
2021/05/15 09:46:34;;;;;;;1.87;0.70;;;18.30;92.50;;;;;;5073747;28;20642;-88
2021/05/15 09:49:01;;;;;;;2.17;0.80;;;17.70;93.10;;;;;;5069649;28;20652;-87
2021/05/15 09:51:30;;;;;;;2.43;1.27;;;17.50;93.60;;;;;;5066746;28;20667;-87
2021/05/15 09:54:12;;;;;;;1.07;0.70;;;17.50;94.00;;;;;;5101532;27;20994;-87
2021/05/15 09:56:39;;;;;;;1.20;0.90;;;17.00;94.00;;;;;;5070400;28;20629;-88
2021/05/15 09:59:06;;;;;;;2.10;0.93;;;17.30;94.20;;;;;;5068442;28;20656;-89
2021/05/15 10:01:42;;;;;;;0.90;0.60;;;17.30;94.20;;;;;;5065896;28;20725;-87
2021/05/15 10:04:23;;;;;;;0.80;0.70;;;17.30;93.00;;;;;;5066938;28;20999;-87
2021/05/15 10:06:51;;;;;;;1.40;0.70;;;17.40;93.30;;;;;;5069191;28;20639;-87
2021/05/15 10:09:29;;;;;;;1.30;0.57;;;17.40;93.90;;;;;;5072089;28;20617;-88
2021/05/15 10:11:58;;;;;;;2.17;0.83;;;17.50;92.50;;;;;;5069883;28;20596;-87
2021/05/15 10:14:26;;;;;;;1.13;0.70;;;17.30;93.00;;;;;;5067200;28;20651;-87
2021/05/15 10:16:53;;;;;;;3.57;1.03;;;17.40;93.00;;;;;;5063747;28;20645;-87
2021/05/15 10:19:20;;;;;;;1.60;0.57;;;17.20;92.80;;;;;;5065180;28;20704;-88
2021/05/15 10:21:48;;;;;;;1.27;0.67;;;17.10;93.20;;;;;;5059619;28;21007;-87
2021/05/15 10:24:24;;;;;;;2.20;1.20;;;17.60;93.00;;;;;;5065002;28;20999;-88
2021/05/15 10:26:57;;;;;;;1.37;0.90;;;17.60;91.80;;;;;;5059230;28;21335;-88
2021/05/15 10:29:35;;;;;;;0.70;0.70;;;17.70;92.50;;;;;;5061271;28;20636;-88
2021/05/15 10:32:03;;;;;;;0.80;0.70;;;18.00;92.00;;;;;;5066682;28;20719;-89
2021/05/15 10:34:33;;;;;;;2.87;0.93;;;17.70;92.40;;;;;;5066840;28;20732;-87
2021/05/15 10:37:01;;;;;;;1.50;0.60;;;17.30;92.10;;;;;;5068785;28;20723;-87
2021/05/15 10:39:30;;;;;;;1.73;0.67;;;16.70;92.00;;;;;;5071393;28;20653;-88
2021/05/15 10:41:58;;;;;;;1.80;1.00;;;16.80;92.60;;;;;;5069303;28;20688;-88
2021/05/15 10:44:24;;;;;;;0.80;0.63;;;16.80;92.30;;;;;;5074111;28;20620;-88
2021/05/15 10:46:52;;;;;;;1.60;0.90;;;17.00;92.70;;;;;;5071740;28;20741;-87
2021/05/15 10:49:23;;;;;;;1.70;0.80;;;17.30;92.50;;;;;;5066009;28;20630;-88
2021/05/15 10:51:52;;;;;;;0.77;0.60;;;17.10;92.30;;;;;;5062648;28;21252;-88
2021/05/15 10:54:31;;;;;;;2.07;0.70;;;17.00;92.30;;;;;;5067475;28;20624;-88
2021/05/15 10:57:02;;;;;;;1.93;0.80;;;17.10;92.90;;;;;;5059317;28;20637;-86
2021/05/15 10:59:28;;;;;;;1.47;1.00;;;17.30;92.50;;;;;;5068103;28;20763;-87
2021/05/15 11:01:56;;;;;;;2.50;1.10;;;18.30;92.40;;;;;;5061332;28;20636;-87
2021/05/15 11:04:28;;;;;;;3.10;1.03;;;19.10;91.20;;;;;;5062573;28;20690;-86
2021/05/15 11:07:04;;;;;;;0.70;0.50;;;19.70;88.40;;;;;;5061781;28;20623;-86
2021/05/15 11:09:32;;;;;;;2.70;0.80;;;19.30;84.60;;;;;;5065987;28;20679;-89
2021/05/15 11:12:09;;;;;;;2.10;0.90;;;19.50;84.40;;;;;;5060058;28;20631;-86
2021/05/15 11:14:37;;;;;;;1.80;1.00;;;19.10;82.80;;;;;;5061974;28;20659;-86
2021/05/15 11:17:16;;;;;;;1.27;0.80;;;18.70;84.80;;;;;;5061621;28;20624;-86
2021/05/15 11:19:51;;;;;;;1.90;1.13;;;18.60;86.60;;;;;;5062401;28;20676;-86
2021/05/15 11:22:20;;;;;;;2.50;1.37;;;18.20;89.10;;;;;;5060465;28;20620;-87
2021/05/15 11:24:53;;;;;;;3.13;1.27;;;18.10;90.30;;;;;;5063812;28;20625;-86
2021/05/15 11:27:20;;;;;;;1.93;0.90;;;17.80;90.00;;;;;;5062727;28;20644;-87
2021/05/15 11:29:49;;;;;;;1.70;1.03;;;17.30;91.30;;;;;;5064467;28;20662;-86
2021/05/15 11:32:17;;;;;;;2.80;0.90;;;16.80;91.00;;;;;;5066076;28;20733;-86
2021/05/15 11:34:44;;;;;;;4.00;0.97;;;16.70;90.30;;;;;;5064757;28;20625;-86
2021/05/15 11:37:13;;;;;;;4.83;1.27;;;16.40;90.20;;;;;;5062048;28;20637;-87
2021/05/15 11:39:40;;;;;;;4.23;0.90;;;16.40;90.20;;;;;;5062231;28;21265;-86
2021/05/15 11:42:11;;;;;;;1.10;0.60;;;16.40;90.00;;;;;;5062734;28;20640;-88
2021/05/15 11:44:41;;;;;;;2.20;0.80;;;16.60;90.70;;;;;;5065939;28;21192;-87
2021/05/15 11:47:09;;;;;;;1.13;0.70;;;16.80;89.30;;;;;;5063995;28;21099;-87
2021/05/15 11:49:37;;;;;;;2.10;0.80;;;17.00;90.10;;;;;;5061109;28;20657;-87
2021/05/15 11:52:06;;;;;;;3.20;1.17;;;17.10;89.40;;;;;;5063901;28;20628;-87
2021/05/15 11:54:34;;;;;;;1.13;0.60;;;17.50;87.80;;;;;;5071392;28;20640;-88
2021/05/15 11:57:02;;;;;;;1.37;0.80;;;17.50;86.90;;;;;;5065159;28;20624;-88
2021/05/15 11:59:30;;;;;;;0.70;0.40;;;17.40;86.90;;;;;;5068033;28;20708;-87
2021/05/15 12:01:58;;;;;;;2.30;0.80;;;17.60;87.70;;;;;;5068785;28;21007;-87
2021/05/15 12:04:27;;;;;;;1.37;0.80;;;17.70;86.30;;;;;;5064321;28;20644;-87
2021/05/15 12:06:56;;;;;;;1.00;0.70;;;17.60;87.30;;;;;;5064292;28;21012;-88
2021/05/15 12:09:23;;;;;;;2.20;0.90;;;17.90;87.60;;;;;;5067418;28;21161;-90
2021/05/15 12:11:57;;;;;;;2.23;1.00;;;18.00;85.90;;;;;;5070839;28;21043;-87
2021/05/15 12:14:24;;;;;;;2.90;0.90;;;17.70;85.90;;;;;;5063737;28;20631;-89
2021/05/15 12:16:51;;;;;;;1.87;0.70;;;17.90;86.10;;;;;;5062286;28;20767;-88
2021/05/15 12:19:23;;;;;;;1.93;0.70;;;17.60;86.80;;;;;;5068640;28;20660;-88
2021/05/15 12:21:57;;;;;;;2.00;1.00;;;17.80;85.40;;;;;;5067184;28;20617;-87
2021/05/15 12:24:30;;;;;;;4.37;0.80;;;18.00;83.50;;;;;;5063520;28;20648;-88
2021/05/15 12:27:06;;;;;;;1.57;0.90;;;18.40;82.40;;;;;;5063960;28;20650;-88
2021/05/15 12:29:33;;;;;;;1.57;1.00;;;19.60;80.50;;;;;;5067828;28;20666;-87
2021/05/15 12:32:01;;;;;;;4.57;1.47;;;21.40;77.80;;;;;;5061914;28;20621;-88
2021/05/15 12:34:35;;;;;;;1.33;0.77;;;21.50;74.00;;;;;;5069552;28;20636;-87
2021/05/15 12:37:13;;;;;;;1.97;0.80;;;21.50;70.70;;;;;;5077942;28;20628;-87
2021/05/15 12:39:39;;;;;;;1.07;0.60;;;21.00;70.20;;;;;;5065720;28;20676;-89
2021/05/15 12:42:06;;;;;;;3.73;0.90;;;21.50;69.50;;;;;;5064159;28;20633;-88
2021/05/15 12:44:41;;;;;;;1.13;1.03;;;21.20;69.50;;;;;;5065118;28;20997;-88
2021/05/15 12:47:09;;;;;;;1.57;1.17;;;20.90;70.60;;;;;;5070204;28;20632;-88
2021/05/15 12:49:38;;;;;;;3.00;0.80;;;20.20;71.40;;;;;;5071954;28;20621;-88
2021/05/15 12:52:18;;;;;;;2.07;0.80;;;19.70;73.00;;;;;;5065909;28;20637;-88
2021/05/15 12:54:45;;;;;;;0.87;0.57;;;19.60;73.50;;;;;;5070563;28;21251;-87